createdAt,value
2023-05-18T00:01:57.393Z,5.87
2023-05-18T00:04:24.281Z,6.30
2023-05-18T00:06:56.952Z,6.07
2023-05-18T00:09:26.417Z,9.37
2023-05-18T00:11:53.422Z,7.50
2023-05-18T00:14:20.200Z,4.43
2023-05-18T00:16:47.739Z,5.77
2023-05-18T00:19:15.064Z,5.30
2023-05-18T00:21:42.630Z,7.03
2023-05-18T00:24:10.959Z,3.93
2023-05-18T00:26:38.376Z,5.67
2023-05-18T00:29:06.123Z,5.73
2023-05-18T00:31:39.371Z,7.37
2023-05-18T00:34:07.435Z,6.97
2023-05-18T00:36:34.032Z,6.07
2023-05-18T00:39:00.969Z,3.20
2023-05-18T00:41:27.656Z,3.90
2023-05-18T00:43:54.689Z,2.83
2023-05-18T00:46:21.598Z,6.33
2023-05-18T00:48:48.650Z,2.50
2023-05-18T00:51:15.604Z,6.63
2023-05-18T00:53:44.125Z,3.03
2023-05-18T00:56:11.297Z,4.10
2023-05-18T00:58:41.412Z,3.60
2023-05-18T01:01:09.612Z,6.90
2023-05-18T01:03:38.395Z,7.63
2023-05-18T01:06:08.070Z,7.90
2023-05-18T01:08:35.117Z,5.83
2023-05-18T01:11:22.771Z,3.13
2023-05-18T01:14:15.820Z,2.10
2023-05-18T01:16:45.171Z,3.83
2023-05-18T01:19:16.642Z,2.93
2023-05-18T01:22:04.994Z,5.43
2023-05-18T01:24:34.369Z,4.10
2023-05-18T01:27:01.072Z,2.43
2023-05-18T01:29:27.833Z,2.93
2023-05-18T01:31:54.499Z,4.43
2023-05-18T01:34:21.285Z,4.67
2023-05-18T01:36:48.698Z,3.77
2023-05-18T01:39:15.792Z,2.60
2023-05-18T01:41:46.482Z,3.83
2023-05-18T02:16:22.810Z,5.03
2023-05-18T02:18:53.141Z,4.27
2023-05-18T02:21:20.611Z,6.53
2023-05-18T02:23:47.242Z,2.80
2023-05-18T02:26:14.145Z,4.20
2023-05-18T02:28:41.141Z,3.30
2023-05-18T02:31:08.266Z,2.70
2023-05-18T02:33:41.662Z,3.73
2023-05-18T02:36:09.042Z,3.60
2023-05-18T02:38:36.441Z,3.17
2023-05-18T02:41:03.185Z,2.73
2023-05-18T02:43:30.646Z,3.20
2023-05-18T02:45:57.341Z,2.93
2023-05-18T02:48:24.252Z,4.17
2023-05-18T02:50:51.967Z,5.27
2023-05-18T02:53:19.116Z,4.40
2023-05-18T02:55:46.833Z,3.70
2023-05-18T02:58:19.490Z,4.53
2023-05-18T03:01:00.012Z,3.87
2023-05-18T03:03:33.285Z,4.53
2023-05-18T03:06:00.763Z,3.90
2023-05-18T03:08:28.802Z,6.63
2023-05-18T03:10:57.264Z,4.33
2023-05-18T03:13:24.074Z,5.07
2023-05-18T03:15:51.901Z,4.93
2023-05-18T03:18:19.437Z,5.27
2023-05-18T03:20:46.082Z,5.50
2023-05-18T03:23:12.972Z,2.97
2023-05-18T03:25:39.930Z,2.23
2023-05-18T03:28:06.630Z,3.20
2023-05-18T03:30:34.211Z,3.07
2023-05-18T03:33:04.655Z,2.33
2023-05-18T03:35:31.524Z,6.10
2023-05-18T03:37:58.589Z,7.17
2023-05-18T03:40:25.324Z,4.70
2023-05-18T03:42:52.256Z,4.33
2023-05-18T03:45:18.895Z,4.97
2023-05-18T03:47:47.244Z,3.87
2023-05-18T03:50:13.909Z,4.67
2023-05-18T03:52:41.679Z,2.60
2023-05-18T03:55:09.105Z,2.97
2023-05-18T03:57:35.826Z,5.33
2023-05-18T04:00:04.502Z,3.97
2023-05-18T04:02:32.818Z,3.77
2023-05-18T04:04:59.626Z,4.83
2023-05-18T04:07:27.429Z,4.07
2023-05-18T04:09:55.250Z,2.87
2023-05-18T04:12:21.905Z,4.67
2023-05-18T04:14:49.591Z,4.80
2023-05-18T04:17:22.260Z,6.87
2023-05-18T04:19:49.677Z,4.67
2023-05-18T04:22:16.421Z,6.87
2023-05-18T04:24:44.408Z,7.00
2023-05-18T04:27:12.224Z,8.97
2023-05-18T04:29:43.946Z,7.60
2023-05-18T04:32:11.159Z,7.03
2023-05-18T04:34:38.148Z,11.10
2023-05-18T04:37:07.849Z,5.23
2023-05-18T04:39:39.621Z,7.33
2023-05-18T04:42:10.708Z,4.93
2023-05-18T04:44:39.120Z,6.67
2023-05-18T04:47:10.449Z,6.03
2023-05-18T04:49:38.771Z,5.63
2023-05-18T04:52:08.083Z,4.67
2023-05-18T04:54:35.071Z,5.20
2023-05-18T04:57:03.635Z,6.27
2023-05-18T04:59:30.548Z,4.30
2023-05-18T05:01:57.252Z,3.80
2023-05-18T05:04:25.543Z,5.77
2023-05-18T05:06:52.336Z,4.67
2023-05-18T05:09:19.034Z,5.33
2023-05-18T05:11:45.931Z,5.30
2023-05-18T05:14:12.882Z,2.93
2023-05-18T05:16:39.720Z,5.07
2023-05-18T05:19:06.805Z,4.57
2023-05-18T05:21:33.833Z,3.50
2023-05-18T05:24:05.081Z,4.47
2023-05-18T05:26:33.925Z,3.23
2023-05-18T05:29:00.578Z,2.77
2023-05-18T05:31:27.595Z,2.97
2023-05-18T05:33:54.369Z,2.50
2023-05-18T05:36:21.103Z,3.33
2023-05-18T05:38:47.867Z,1.70
2023-05-18T05:41:14.874Z,3.63
2023-05-18T05:43:41.611Z,6.43
2023-05-18T05:46:08.367Z,2.57
2023-05-18T05:48:35.136Z,4.60
2023-05-18T05:51:02.706Z,3.17
2023-05-18T05:53:30.897Z,7.40
2023-05-18T05:55:57.851Z,2.60
2023-05-18T05:58:24.830Z,1.77
2023-05-18T06:00:55.912Z,1.60
2023-05-18T06:03:22.901Z,3.70
2023-05-18T06:05:49.962Z,3.93
2023-05-18T06:08:19.189Z,5.23
2023-05-18T06:10:47.254Z,4.13
2023-05-18T06:13:13.965Z,3.83
2023-05-18T06:15:50.310Z,4.70
2023-05-18T06:18:18.037Z,2.97
2023-05-18T06:20:45.728Z,1.73
2023-05-18T06:23:15.179Z,4.20
2023-05-18T06:26:02.250Z,4.10
2023-05-18T06:28:47.841Z,2.83
2023-05-18T06:31:25.029Z,3.43
2023-05-18T06:34:13.935Z,2.47
2023-05-18T06:36:40.866Z,6.03
2023-05-18T06:39:07.616Z,2.30
2023-05-18T06:41:34.626Z,2.20
2023-05-18T06:44:02.239Z,2.97
2023-05-18T06:46:36.273Z,2.13
2023-05-18T06:49:09.384Z,2.20
2023-05-18T06:51:37.509Z,2.33
2023-05-18T06:54:04.345Z,2.17
2023-05-18T06:56:31.129Z,1.53
2023-05-18T06:59:00.183Z,2.07
2023-05-18T07:01:29.251Z,1.90
2023-05-18T07:03:59.416Z,1.13
2023-05-18T07:06:26.207Z,3.13
2023-05-18T07:08:52.770Z,5.33
2023-05-18T07:11:19.436Z,3.70
2023-05-18T07:13:46.118Z,1.50
2023-05-18T07:16:12.921Z,1.60
2023-05-18T07:18:39.990Z,1.80
2023-05-18T07:21:06.785Z,0.97
2023-05-18T07:23:33.451Z,0.77
2023-05-18T07:26:00.071Z,2.33
2023-05-18T07:28:26.681Z,0.90
2023-05-18T07:30:53.332Z,0.90
2023-05-18T07:33:20.161Z,1.63
2023-05-18T07:35:46.822Z,1.90
2023-05-18T07:38:13.483Z,0.83
2023-05-18T07:40:40.344Z,1.30
2023-05-18T07:43:06.972Z,2.73
2023-05-18T07:45:36.843Z,1.53
2023-05-18T07:48:07.329Z,2.97
2023-05-18T07:50:34.819Z,1.20
2023-05-18T07:53:01.465Z,1.03
2023-05-18T07:55:28.261Z,0.73
2023-05-18T07:57:54.881Z,2.27
2023-05-18T08:00:21.533Z,2.47
2023-05-18T08:02:48.399Z,2.57
2023-05-18T08:05:15.202Z,1.57
2023-05-18T08:07:42.619Z,4.97
2023-05-18T08:10:09.472Z,2.30
2023-05-18T08:12:36.373Z,2.73
2023-05-18T08:15:03.232Z,1.80
2023-05-18T08:17:29.866Z,2.33
2023-05-18T08:19:57.023Z,0.93
2023-05-18T08:22:23.661Z,1.77
2023-05-18T08:24:50.880Z,1.90
2023-05-18T08:27:17.603Z,2.73
2023-05-18T08:29:45.092Z,2.20
2023-05-18T08:32:12.160Z,2.30
2023-05-18T08:34:38.841Z,2.57
2023-05-18T08:37:05.482Z,1.47
2023-05-18T08:39:32.459Z,2.37
2023-05-18T08:42:02.940Z,1.27
2023-05-18T08:44:35.990Z,2.70
2023-05-18T08:47:02.679Z,4.10
2023-05-18T08:49:29.604Z,1.73
2023-05-18T08:51:57.280Z,3.47
2023-05-18T08:54:24.512Z,2.90
2023-05-18T08:56:51.292Z,2.70
2023-05-18T08:59:25.309Z,1.23
2023-05-18T09:01:54.961Z,1.20
2023-05-18T09:04:22.089Z,2.20
2023-05-18T09:06:48.858Z,2.43
2023-05-18T09:09:15.417Z,1.73
2023-05-18T09:11:42.145Z,1.30
2023-05-18T09:14:08.834Z,1.30
2023-05-18T09:16:35.829Z,0.93
2023-05-18T09:19:02.586Z,1.27
2023-05-18T09:21:31.441Z,0.73
2023-05-18T09:23:59.291Z,1.77
2023-05-18T09:26:26.482Z,2.53
2023-05-18T09:28:53.369Z,1.93
2023-05-18T09:31:21.013Z,2.53
2023-05-18T09:33:47.934Z,2.47
2023-05-18T09:36:18.288Z,3.77
2023-05-18T09:38:47.937Z,1.80
2023-05-18T09:41:17.745Z,2.70
2023-05-18T09:43:45.545Z,1.63
2023-05-18T09:46:12.478Z,1.33
2023-05-18T09:48:50.278Z,1.33
2023-05-18T09:51:18.202Z,1.20
2023-05-18T09:53:48.725Z,1.87
2023-05-18T09:56:15.716Z,3.47
2023-05-18T09:58:42.360Z,3.33
2023-05-18T10:01:09.031Z,5.43
2023-05-18T10:03:39.506Z,2.57
2023-05-18T10:06:07.011Z,3.33
2023-05-18T10:08:33.859Z,2.83
2023-05-18T10:11:00.716Z,2.87
2023-05-18T10:13:28.337Z,0.70
2023-05-18T10:15:55.463Z,1.80
2023-05-18T10:18:23.074Z,1.43
2023-05-18T10:20:50.642Z,2.83
2023-05-18T10:23:20.268Z,1.93
2023-05-18T10:25:47.422Z,2.23
2023-05-18T10:28:14.716Z,3.93
2023-05-18T10:30:42.014Z,2.73
2023-05-18T10:33:20.759Z,2.47
2023-05-18T10:35:51.900Z,2.47
2023-05-18T10:38:23.845Z,1.77
2023-05-18T10:40:51.176Z,1.00
2023-05-18T10:43:19.901Z,1.17
2023-05-18T10:45:49.143Z,1.47
2023-05-18T10:48:15.893Z,0.50
2023-05-18T10:50:42.600Z,1.93
2023-05-18T10:53:09.565Z,0.83
2023-05-18T10:55:36.517Z,2.07
2023-05-18T10:58:07.617Z,0.80
2023-05-18T11:00:35.523Z,0.93
2023-05-18T11:03:02.167Z,0.60
2023-05-18T11:05:28.935Z,2.53
2023-05-18T11:08:03.484Z,1.90
2023-05-18T11:10:33.791Z,2.07
2023-05-18T11:13:03.597Z,1.63
2023-05-18T11:15:48.707Z,0.53
2023-05-18T11:18:15.483Z,0.50
2023-05-18T11:20:42.148Z,0.77
2023-05-18T11:23:08.697Z,1.77
2023-05-18T11:25:38.600Z,0.60
2023-05-18T11:28:06.016Z,0.83
2023-05-18T11:30:36.634Z,1.03
2023-05-18T11:33:09.727Z,1.10
2023-05-18T11:35:54.978Z,0.90
2023-05-18T11:38:22.132Z,1.73
2023-05-18T11:40:49.219Z,0.90
2023-05-18T11:43:25.188Z,2.20
2023-05-18T11:45:52.260Z,0.93
2023-05-18T11:48:20.803Z,2.50
2023-05-18T11:50:48.266Z,2.23
2023-05-18T11:53:18.135Z,2.03
2023-05-18T11:55:46.023Z,1.90
2023-05-18T11:58:18.959Z,2.10
2023-05-18T12:00:46.404Z,1.77
2023-05-18T12:03:13.388Z,2.83
2023-05-18T12:05:42.152Z,0.30
2023-05-18T12:08:09.106Z,3.80
2023-05-18T12:10:39.900Z,1.13
2023-05-18T12:13:07.358Z,1.90
2023-05-18T12:15:34.022Z,0.50
2023-05-18T12:18:01.144Z,3.47
2023-05-18T12:20:31.505Z,1.60
2023-05-18T12:22:58.413Z,2.13
2023-05-18T12:25:25.716Z,1.90
2023-05-18T12:27:52.921Z,0.97
2023-05-18T12:30:20.288Z,4.50
2023-05-18T12:32:54.388Z,1.67
2023-05-18T12:35:24.180Z,1.53
2023-05-18T12:37:50.835Z,0.60
2023-05-18T12:40:18.008Z,2.37
2023-05-18T12:42:51.870Z,1.37
2023-05-18T12:45:19.349Z,1.17
2023-05-18T12:47:45.994Z,2.70
2023-05-18T12:50:12.643Z,3.83
2023-05-18T12:52:39.837Z,2.13
2023-05-18T12:55:08.197Z,3.87
2023-05-18T12:57:37.080Z,1.47
2023-05-18T13:00:10.330Z,3.30
2023-05-18T13:02:38.072Z,4.87
2023-05-18T13:05:08.947Z,2.90
2023-05-18T13:07:42.490Z,1.60
2023-05-18T13:10:12.696Z,1.30
2023-05-18T13:12:49.236Z,1.23
2023-05-18T13:15:22.310Z,1.30
2023-05-18T13:17:54.927Z,5.60
2023-05-18T13:20:21.878Z,1.70
2023-05-18T13:22:49.829Z,1.50
2023-05-18T13:25:16.541Z,1.97
2023-05-18T13:27:45.844Z,2.00
2023-05-18T13:30:12.892Z,1.47
2023-05-18T13:32:39.616Z,1.97
2023-05-18T13:35:06.627Z,2.03
2023-05-18T13:37:33.258Z,0.90
2023-05-18T13:40:00.109Z,1.33
2023-05-18T13:42:27.301Z,0.90
2023-05-18T13:44:54.445Z,1.67
2023-05-18T13:47:26.285Z,1.80
2023-05-18T13:49:53.860Z,1.57
2023-05-18T13:52:20.505Z,2.87
2023-05-18T13:54:47.709Z,1.67
2023-05-18T13:57:14.887Z,0.77
2023-05-18T13:59:41.584Z,0.23
2023-05-18T14:02:08.351Z,1.40
2023-05-18T14:04:36.740Z,1.70
2023-05-18T14:07:03.609Z,3.07
2023-05-18T14:09:30.522Z,1.00
2023-05-18T14:12:00.021Z,2.33
2023-05-18T14:14:28.132Z,1.20
2023-05-18T14:16:56.301Z,0.60
2023-05-18T14:19:23.338Z,4.90
2023-05-18T14:21:50.344Z,1.20
2023-05-18T14:24:17.137Z,4.57
2023-05-18T14:26:44.015Z,1.80
2023-05-18T14:29:10.830Z,2.73
2023-05-18T14:31:38.058Z,0.70
2023-05-18T14:34:04.992Z,0.87
2023-05-18T14:36:31.670Z,0.50
2023-05-18T14:38:58.369Z,2.13
2023-05-18T14:41:25.393Z,0.93
2023-05-18T14:43:53.908Z,2.10
2023-05-18T14:46:23.708Z,0.47
2023-05-18T14:48:50.453Z,1.90
2023-05-18T14:51:18.455Z,2.43
2023-05-18T14:53:46.999Z,1.93
2023-05-18T14:56:14.244Z,1.33
2023-05-18T14:58:41.834Z,1.27
2023-05-18T15:01:08.651Z,1.57
2023-05-18T15:03:35.907Z,0.60
2023-05-18T15:06:02.962Z,2.60
2023-05-18T15:08:29.902Z,1.20
2023-05-18T15:10:56.745Z,1.00
2023-05-18T15:13:23.375Z,0.80
2023-05-18T15:15:50.076Z,1.43
2023-05-18T15:18:17.670Z,0.70
2023-05-18T15:20:44.428Z,1.63
2023-05-18T15:23:13.892Z,3.53
2023-05-18T15:25:44.643Z,0.73
2023-05-18T15:28:11.734Z,1.93
2023-05-18T15:30:38.386Z,1.53
2023-05-18T15:33:06.414Z,1.27
2023-05-18T15:35:34.949Z,2.13
2023-05-18T15:38:01.766Z,0.73
2023-05-18T15:40:28.760Z,0.60
2023-05-18T15:42:55.687Z,0.27
2023-05-18T15:45:22.365Z,0.33
2023-05-18T15:47:49.384Z,1.63
2023-05-18T15:50:16.304Z,1.93
2023-05-18T15:52:44.476Z,1.20
2023-05-18T15:55:11.770Z,3.57
2023-05-18T15:57:38.733Z,3.30
2023-05-18T16:00:05.809Z,3.03
2023-05-18T16:02:38.423Z,1.20
2023-05-18T16:05:05.407Z,1.03
2023-05-18T16:07:32.012Z,1.50
2023-05-18T16:09:58.831Z,0.90
2023-05-18T16:12:25.798Z,2.13
2023-05-18T16:14:52.679Z,2.10
2023-05-18T16:17:19.596Z,1.43
2023-05-18T16:19:46.371Z,0.90
2023-05-18T16:22:13.066Z,2.13
2023-05-18T16:24:40.994Z,0.87
2023-05-18T16:27:07.773Z,2.03
2023-05-18T16:29:34.932Z,0.90
2023-05-18T16:32:01.907Z,2.27
2023-05-18T16:34:29.459Z,2.37
2023-05-18T16:36:56.336Z,2.17
2023-05-18T16:39:27.235Z,0.83
2023-05-18T16:41:54.055Z,3.30
2023-05-18T16:44:20.871Z,0.70
2023-05-18T16:46:48.660Z,1.70
2023-05-18T16:49:15.513Z,1.30
2023-05-18T16:51:43.572Z,1.83
2023-05-18T16:54:10.279Z,1.60
2023-05-18T16:56:36.962Z,3.30
2023-05-18T16:59:03.627Z,2.83
2023-05-18T17:01:30.999Z,1.50
2023-05-18T17:03:57.947Z,0.70
2023-05-18T17:06:25.242Z,2.30
2023-05-18T17:08:57.937Z,1.70
2023-05-18T17:11:27.107Z,1.93
2023-05-18T17:13:54.498Z,0.73
2023-05-18T17:16:22.349Z,1.03
2023-05-18T17:18:50.041Z,1.80
2023-05-18T17:21:16.935Z,2.30
2023-05-18T17:23:45.687Z,2.00
2023-05-18T17:26:12.504Z,1.90
2023-05-18T17:28:39.402Z,2.07
2023-05-18T17:31:06.811Z,1.40
2023-05-18T17:33:33.642Z,2.73
2023-05-18T17:36:01.713Z,0.63
2023-05-18T17:38:28.941Z,1.50
2023-05-18T17:40:55.701Z,0.80
2023-05-18T17:43:22.753Z,1.13
2023-05-18T17:45:50.752Z,7.93
2023-05-18T17:48:17.553Z,1.00
2023-05-18T17:50:45.604Z,15.77
2023-05-18T17:53:13.431Z,6.17
2023-05-18T17:55:40.247Z,3.00
2023-05-18T17:58:07.186Z,3.53
2023-05-18T18:00:35.460Z,0.93
2023-05-18T18:03:02.467Z,1.57
2023-05-18T18:05:30.905Z,1.03
2023-05-18T18:08:00.535Z,7.13
2023-05-18T18:10:27.192Z,12.53
2023-05-18T18:12:57.591Z,15.10
2023-05-18T18:15:29.032Z,14.63
2023-05-18T18:17:59.027Z,50.97
2023-05-18T18:20:27.213Z,58.87
2023-05-18T18:22:55.543Z,22.40
2023-05-18T18:25:22.130Z,6.70
2023-05-18T18:27:49.766Z,13.20
2023-05-18T18:30:16.584Z,11.33
2023-05-18T18:32:43.525Z,6.50
2023-05-18T18:35:10.508Z,1.63
2023-05-18T18:37:41.988Z,2.40
2023-05-18T18:40:09.058Z,8.13
2023-05-18T18:42:35.758Z,7.23
2023-05-18T18:45:03.259Z,6.23
2023-05-18T18:47:30.491Z,10.27
2023-05-18T18:49:57.192Z,7.90
2023-05-18T18:52:23.846Z,5.57
2023-05-18T18:54:51.513Z,8.00
2023-05-18T18:57:18.141Z,7.60
2023-05-18T18:59:44.826Z,9.27
2023-05-18T19:02:11.498Z,11.00
2023-05-18T19:04:38.407Z,11.50
2023-05-18T19:07:05.102Z,9.90
2023-05-18T19:09:34.852Z,6.63
2023-05-18T19:12:04.711Z,7.50
2023-05-18T19:14:31.373Z,3.03
2023-05-18T19:16:58.045Z,4.00
2023-05-18T19:19:24.751Z,4.10
2023-05-18T19:21:51.654Z,4.93
2023-05-18T19:24:18.553Z,4.20
2023-05-18T19:27:06.791Z,4.83
2023-05-18T19:29:37.419Z,4.63
2023-05-18T19:32:04.356Z,5.43
2023-05-18T19:34:35.769Z,5.33
2023-05-18T19:37:02.552Z,5.63
2023-05-18T19:39:29.236Z,4.67
2023-05-18T19:41:56.273Z,3.80
2023-05-18T19:44:23.171Z,5.43
2023-05-18T19:46:49.809Z,6.47
2023-05-18T19:49:17.727Z,6.70
2023-05-18T19:51:44.768Z,4.80
2023-05-18T19:54:12.082Z,6.43
2023-05-18T19:56:40.921Z,8.97
2023-05-18T19:59:07.831Z,9.17
2023-05-18T20:01:36.174Z,4.80
2023-05-18T20:04:03.823Z,5.17
2023-05-18T20:06:32.363Z,8.47
2023-05-18T20:08:59.219Z,10.30
2023-05-18T20:11:27.618Z,7.70
2023-05-18T20:13:54.248Z,8.50
2023-05-18T20:16:23.393Z,9.70
2023-05-18T20:18:50.324Z,10.87
2023-05-18T20:21:21.246Z,8.10
2023-05-18T20:23:48.840Z,6.67
2023-05-18T20:26:15.788Z,6.47
2023-05-18T20:28:43.310Z,6.07
2023-05-18T20:31:10.747Z,6.20
2023-05-18T20:33:37.642Z,5.47
2023-05-18T20:36:06.766Z,6.53
2023-05-18T20:38:33.469Z,5.73
2023-05-18T20:41:01.940Z,5.90
2023-05-18T20:43:31.906Z,6.00
2023-05-18T20:45:58.601Z,5.40
2023-05-18T20:48:26.816Z,3.97
2023-05-18T20:50:54.180Z,5.40
2023-05-18T20:53:21.330Z,2.93
2023-05-18T20:55:49.854Z,5.03
2023-05-18T20:58:19.421Z,5.27
2023-05-18T21:00:49.161Z,4.20
2023-05-18T21:03:18.692Z,3.00
2023-05-18T21:05:48.052Z,2.47
2023-05-18T21:08:14.714Z,5.37
2023-05-18T21:10:41.921Z,4.07
2023-05-18T21:13:08.532Z,5.77
2023-05-18T21:15:36.794Z,8.03
2023-05-18T21:18:06.148Z,4.70
2023-05-18T21:20:33.309Z,6.93
2023-05-18T21:23:00.050Z,6.33
2023-05-18T21:25:26.717Z,5.60
2023-05-18T21:27:53.832Z,6.90
2023-05-18T21:30:20.486Z,6.47
2023-05-18T21:32:48.308Z,6.40
2023-05-18T21:35:15.895Z,10.17
2023-05-18T21:37:42.843Z,10.27
2023-05-18T21:40:10.393Z,6.63
2023-05-18T21:42:41.270Z,7.03
2023-05-18T21:45:08.248Z,9.80
2023-05-18T21:47:35.354Z,9.03
2023-05-18T21:50:02.609Z,10.47
2023-05-18T21:52:29.182Z,9.13
2023-05-18T21:54:55.903Z,30.80
2023-05-18T21:57:22.487Z,14.87
2023-05-18T21:59:49.153Z,18.33
2023-05-18T22:02:15.984Z,17.03
2023-05-18T22:04:42.665Z,15.73
2023-05-18T22:07:09.280Z,15.43
2023-05-18T22:09:36.622Z,15.80
2023-05-18T22:12:03.321Z,22.90
2023-05-18T22:14:31.088Z,23.03
2023-05-18T22:16:57.799Z,15.20
2023-05-18T22:19:25.599Z,20.00
2023-05-18T22:21:53.744Z,16.83
2023-05-18T22:24:20.479Z,14.63
2023-05-18T22:26:47.093Z,17.70
2023-05-18T22:29:13.742Z,15.73
2023-05-18T22:31:41.307Z,14.50
2023-05-18T22:34:07.965Z,16.40
2023-05-18T22:36:35.301Z,13.97
2023-05-18T22:39:01.936Z,26.63
2023-05-18T22:41:28.488Z,19.87
2023-05-18T22:43:55.130Z,16.73
2023-05-18T22:46:21.847Z,15.07
2023-05-18T22:48:48.543Z,15.43
2023-05-18T22:51:15.766Z,16.57
2023-05-18T22:53:42.439Z,11.47
2023-05-18T22:56:08.986Z,11.80
2023-05-18T22:58:36.370Z,14.43
2023-05-18T23:01:03.294Z,13.30
2023-05-18T23:03:29.849Z,11.87
2023-05-18T23:05:56.444Z,12.50
2023-05-18T23:08:23.966Z,14.43
2023-05-18T23:10:50.722Z,14.20
2023-05-18T23:13:17.529Z,10.07
2023-05-18T23:15:44.490Z,10.23
2023-05-18T23:18:12.631Z,13.07
2023-05-18T23:20:39.279Z,10.20
2023-05-18T23:23:06.712Z,9.67
2023-05-18T23:25:33.296Z,9.57
2023-05-18T23:27:59.996Z,10.03
2023-05-18T23:30:26.662Z,10.97
2023-05-18T23:32:53.516Z,10.93
2023-05-18T23:35:20.508Z,11.07
2023-05-18T23:37:48.254Z,12.03
2023-05-18T23:40:14.902Z,9.27
2023-05-18T23:42:41.607Z,9.50
2023-05-18T23:45:08.603Z,10.03
2023-05-18T23:47:35.601Z,9.57
2023-05-18T23:50:02.358Z,9.40
2023-05-18T23:52:29.940Z,8.97
2023-05-18T23:54:58.630Z,8.50
2023-05-18T23:57:25.458Z,8.63
2023-05-18T23:59:52.169Z,12.07
